createdAt,value
2018-03-01T00:01:13.038Z,-9.33
2018-03-01T00:03:40.748Z,-9.26
2018-03-01T00:06:08.497Z,-9.26
2018-03-01T00:08:36.212Z,-9.23
2018-03-01T00:11:03.890Z,-9.25
2018-03-01T00:13:31.748Z,-9.25
2018-03-01T00:15:59.431Z,-9.27
2018-03-01T00:18:27.118Z,-9.28
2018-03-01T00:20:54.870Z,-9.23
2018-03-01T00:23:22.572Z,-9.26
2018-03-01T00:25:50.300Z,-9.25
2018-03-01T00:28:18.132Z,-9.19
2018-03-01T00:30:46.014Z,-9.20
2018-03-01T00:33:13.791Z,-9.21
2018-03-01T00:35:41.465Z,-9.25
2018-03-01T00:38:09.136Z,-9.14
2018-03-01T00:40:36.814Z,-9.15
2018-03-01T00:43:04.536Z,-9.15
2018-03-01T00:45:32.369Z,-9.21
2018-03-01T00:48:00.042Z,-9.13
2018-03-01T00:50:28.027Z,-9.18
2018-03-01T00:52:55.685Z,-9.16
2018-03-01T00:55:23.481Z,-9.09
2018-03-01T00:57:51.128Z,-9.18
2018-03-01T01:00:18.814Z,-9.18
2018-03-01T01:02:46.409Z,-9.12
2018-03-01T01:05:14.236Z,-9.08
2018-03-01T01:07:42.025Z,-9.09
2018-03-01T01:10:09.797Z,-9.08
2018-03-01T01:12:37.560Z,-9.06
2018-03-01T01:15:05.157Z,-9.02
2018-03-01T01:17:32.757Z,-9.06
2018-03-01T01:20:00.644Z,-9.04
2018-03-01T01:22:28.292Z,-9.05
2018-03-01T01:24:55.877Z,-9.01
2018-03-01T01:27:23.472Z,-8.99
2018-03-01T01:29:51.195Z,-8.99
2018-03-01T01:32:19.022Z,-8.98
2018-03-01T01:34:46.797Z,-8.94
2018-03-01T01:37:14.524Z,-8.97
2018-03-01T01:39:42.353Z,-8.96
2018-03-01T01:42:10.018Z,-8.96
2018-03-01T01:44:37.700Z,-8.95
2018-03-01T01:47:05.347Z,-8.96
2018-03-01T01:49:33.037Z,-8.95
2018-03-01T01:52:00.672Z,-8.98
2018-03-01T01:54:28.284Z,-8.95
2018-03-01T01:56:56.077Z,-8.92
2018-03-01T01:59:23.725Z,-8.91
2018-03-01T02:01:51.387Z,-8.91
2018-03-01T02:04:18.961Z,-8.92
2018-03-01T02:06:46.777Z,-8.91
2018-03-01T02:09:14.508Z,-8.91
2018-03-01T02:11:42.234Z,-8.91
2018-03-01T02:14:09.825Z,-8.92
2018-03-01T02:16:37.534Z,-8.94
2018-03-01T02:19:05.358Z,-8.92
2018-03-01T02:21:32.978Z,-8.91
2018-03-01T02:24:00.709Z,-8.94
2018-03-01T02:26:28.491Z,-8.92
2018-03-01T02:28:56.163Z,-8.91
2018-03-01T02:31:23.840Z,-8.94
2018-03-01T02:33:51.620Z,-8.90
2018-03-01T02:36:31.272Z,-8.88
2018-03-01T02:38:59.000Z,-8.92
2018-03-01T02:41:26.730Z,-8.91
2018-03-01T02:43:54.394Z,-8.93
2018-03-01T02:46:21.984Z,-8.91
2018-03-01T02:48:49.714Z,-8.89
2018-03-01T02:51:17.537Z,-8.97
2018-03-01T02:53:45.199Z,-8.91
2018-03-01T02:56:12.878Z,-8.93
2018-03-01T02:58:40.865Z,-8.92
2018-03-01T03:01:08.540Z,-8.96
2018-03-01T03:03:36.140Z,-8.96
2018-03-01T03:06:03.800Z,-8.94
2018-03-01T03:08:31.460Z,-8.96
2018-03-01T03:10:59.140Z,-8.93
2018-03-01T03:13:27.020Z,-8.96
2018-03-01T03:15:54.693Z,-8.96
2018-03-01T03:18:22.288Z,-8.96
2018-03-01T03:20:50.126Z,-8.92
2018-03-01T03:23:17.718Z,-8.92
2018-03-01T03:25:45.388Z,-8.92
2018-03-01T03:28:13.068Z,-8.93
2018-03-01T03:30:40.732Z,-8.92
2018-03-01T03:33:08.359Z,-8.93
2018-03-01T03:35:36.199Z,-8.96
2018-03-01T03:38:03.789Z,-8.93
2018-03-01T03:40:31.548Z,-8.94
2018-03-01T03:42:59.321Z,-8.96
2018-03-01T03:45:26.990Z,-8.95
2018-03-01T03:47:54.728Z,-8.95
2018-03-01T03:50:22.555Z,-8.98
2018-03-01T03:52:50.336Z,-8.98
2018-03-01T03:55:18.002Z,-8.98
2018-03-01T03:57:45.641Z,-8.92
2018-03-01T04:00:13.357Z,-8.89
2018-03-01T04:02:41.033Z,-8.91
2018-03-01T04:05:08.681Z,-8.86
2018-03-01T04:07:36.375Z,-8.89
2018-03-01T04:10:04.052Z,-8.81
2018-03-01T04:12:31.688Z,-8.82
2018-03-01T04:14:59.398Z,-8.83
2018-03-01T04:17:27.192Z,-8.82
2018-03-01T04:19:54.853Z,-8.78
2018-03-01T04:22:22.648Z,-8.73
2018-03-01T04:24:50.415Z,-8.77
2018-03-01T04:27:18.023Z,-8.75
2018-03-01T04:29:45.980Z,-8.77
2018-03-01T04:32:13.650Z,-8.76
2018-03-01T04:34:41.413Z,-8.73
2018-03-01T04:37:09.102Z,-8.80
2018-03-01T04:39:36.700Z,-8.77
2018-03-01T04:42:04.444Z,-8.71
2018-03-01T04:44:32.122Z,-8.75
2018-03-01T04:46:59.870Z,-8.74
2018-03-01T04:49:27.527Z,-8.83
2018-03-01T04:51:55.228Z,-8.80
2018-03-01T04:54:22.841Z,-8.77
2018-03-01T04:56:50.601Z,-8.78
2018-03-01T04:59:18.203Z,-8.79
2018-03-01T05:01:45.947Z,-8.83
2018-03-01T05:04:13.843Z,-8.84
2018-03-01T05:06:41.615Z,-8.86
2018-03-01T05:09:09.397Z,-8.82
2018-03-01T05:11:37.233Z,-8.83
2018-03-01T05:14:04.852Z,-8.84
2018-03-01T05:16:32.626Z,-8.84
2018-03-01T05:19:00.282Z,-8.80
2018-03-01T05:21:27.882Z,-8.82
2018-03-01T05:23:55.552Z,-8.86
2018-03-01T05:26:23.302Z,-8.82
2018-03-01T05:28:51.006Z,-8.81
2018-03-01T05:31:18.617Z,-8.82
2018-03-01T05:33:46.465Z,-8.76
2018-03-01T05:36:14.333Z,-8.76
2018-03-01T05:38:41.985Z,-8.74
2018-03-01T05:41:09.669Z,-8.71
2018-03-01T05:43:37.464Z,-8.67
2018-03-01T05:46:05.346Z,-8.66
2018-03-01T05:48:33.008Z,-8.65
2018-03-01T05:51:00.797Z,-8.68
2018-03-01T05:53:28.581Z,-8.64
2018-03-01T05:55:56.299Z,-8.62
2018-03-01T05:58:23.889Z,-8.64
2018-03-01T06:00:51.600Z,-8.60
2018-03-01T06:03:19.274Z,-8.61
2018-03-01T06:05:46.952Z,-8.61
2018-03-01T06:08:14.826Z,-8.60
2018-03-01T06:10:42.494Z,-8.60
2018-03-01T06:13:10.180Z,-8.51
2018-03-01T06:15:38.065Z,-8.60
2018-03-01T06:18:05.653Z,-8.55
2018-03-01T06:20:33.386Z,-8.56
2018-03-01T06:23:01.193Z,-8.53
2018-03-01T06:25:28.915Z,-8.55
2018-03-01T06:27:56.892Z,-8.60
2018-03-01T06:30:24.503Z,-8.64
2018-03-01T06:32:52.156Z,-8.61
2018-03-01T06:35:19.873Z,-8.60
2018-03-01T06:37:47.548Z,-8.62
2018-03-01T06:40:15.532Z,-8.58
2018-03-01T06:42:43.208Z,-8.60
2018-03-01T06:45:10.852Z,-8.57
2018-03-01T06:47:38.752Z,-8.58
2018-03-01T06:50:06.436Z,-8.54
2018-03-01T06:52:34.215Z,-8.50
2018-03-01T06:55:02.096Z,-8.54
2018-03-01T06:57:29.773Z,-8.42
2018-03-01T06:59:57.651Z,-8.44
2018-03-01T07:02:25.328Z,-8.47
2018-03-01T07:04:52.992Z,-8.40
2018-03-01T07:07:20.793Z,-8.35
2018-03-01T07:09:48.393Z,-8.41
2018-03-01T07:12:16.121Z,-8.32
2018-03-01T07:14:43.775Z,-8.32
2018-03-01T07:17:11.478Z,-8.24
2018-03-01T07:19:39.150Z,-8.22
2018-03-01T07:22:06.825Z,-8.24
2018-03-01T07:24:34.710Z,-8.13
2018-03-01T07:27:02.450Z,-8.09
2018-03-01T07:29:30.164Z,-8.12
2018-03-01T07:31:57.833Z,-8.14
2018-03-01T07:34:25.539Z,-8.06
2018-03-01T07:36:53.141Z,-8.07
2018-03-01T07:39:20.863Z,-7.95
2018-03-01T07:41:48.595Z,-7.88
2018-03-01T07:44:16.239Z,-7.87
2018-03-01T07:46:43.861Z,-7.86
2018-03-01T07:49:11.669Z,-7.78
2018-03-01T07:51:39.339Z,-7.78
2018-03-01T07:54:07.031Z,-7.72
2018-03-01T07:56:34.649Z,-7.71
2018-03-01T07:59:02.320Z,-7.65
2018-03-01T08:01:30.037Z,-7.69
2018-03-01T08:03:57.721Z,-7.54
2018-03-01T08:06:25.389Z,-7.56
2018-03-01T08:08:53.069Z,-7.55
2018-03-01T08:11:20.715Z,-7.42
2018-03-01T08:13:48.523Z,-7.31
2018-03-01T08:16:16.244Z,-7.33
2018-03-01T08:18:43.961Z,-7.35
2018-03-01T08:21:11.760Z,-7.18
2018-03-01T08:23:39.430Z,-7.17
2018-03-01T08:26:07.063Z,-7.07
2018-03-01T08:28:34.883Z,-7.08
2018-03-01T08:31:02.551Z,-7.00
2018-03-01T08:33:30.143Z,-6.89
2018-03-01T08:35:57.722Z,-6.79
2018-03-01T08:38:25.332Z,-6.76
2018-03-01T08:40:52.919Z,-6.67
2018-03-01T08:43:20.628Z,-6.69
2018-03-01T08:45:48.214Z,-6.46
2018-03-01T08:48:15.976Z,-6.32
2018-03-01T08:50:43.650Z,-6.44
2018-03-01T08:53:11.243Z,-6.49
2018-03-01T08:55:39.007Z,-6.64
2018-03-01T08:58:06.889Z,-6.54
2018-03-01T09:00:34.545Z,-6.52
2018-03-01T09:03:02.276Z,-6.54
2018-03-01T09:05:30.117Z,-6.59
2018-03-01T09:07:57.787Z,-6.49
2018-03-01T09:10:25.652Z,-6.45
2018-03-01T09:12:53.394Z,-6.36
2018-03-01T09:15:20.968Z,-6.26
2018-03-01T09:17:48.615Z,-6.33
2018-03-01T09:20:16.254Z,-6.29
2018-03-01T09:22:44.043Z,-6.15
2018-03-01T09:25:11.657Z,-6.19
2018-03-01T09:27:39.288Z,-6.07
2018-03-01T09:30:07.029Z,-6.11
2018-03-01T09:32:34.610Z,-5.90
2018-03-01T09:35:02.196Z,-5.84
2018-03-01T09:37:29.993Z,-5.96
2018-03-01T09:39:57.567Z,-5.89
2018-03-01T09:42:25.147Z,-5.73
2018-03-01T09:44:52.916Z,-5.84
2018-03-01T09:47:20.501Z,-5.82
2018-03-01T09:49:48.171Z,-5.68
2018-03-01T09:52:15.761Z,-5.53
2018-03-01T09:54:43.353Z,-5.51
2018-03-01T09:57:11.081Z,-5.48
2018-03-01T09:59:38.664Z,-5.42
2018-03-01T10:02:06.324Z,-5.26
2018-03-01T10:04:34.118Z,-5.38
2018-03-01T10:07:02.119Z,-5.49
2018-03-01T10:09:29.982Z,-5.54
2018-03-01T10:11:57.643Z,-5.48
2018-03-01T10:14:25.529Z,-5.45
2018-03-01T10:16:53.306Z,-5.41
2018-03-01T10:19:20.967Z,-5.28
2018-03-01T10:21:48.658Z,-5.29
2018-03-01T10:24:16.323Z,-5.26
2018-03-01T10:26:44.004Z,-5.19
2018-03-01T10:29:11.747Z,-5.24
2018-03-01T10:31:39.357Z,-5.22
2018-03-01T10:34:07.032Z,-5.13
2018-03-01T10:36:34.710Z,-4.93
2018-03-01T10:39:02.370Z,-4.83
2018-03-01T10:41:30.165Z,-4.78
2018-03-01T10:43:57.892Z,-4.70
2018-03-01T10:46:25.520Z,-4.79
2018-03-01T10:48:53.106Z,-4.68
2018-03-01T10:51:20.818Z,-4.87
2018-03-01T10:53:48.528Z,-4.82
2018-03-01T10:56:16.317Z,-4.81
2018-03-01T10:58:44.101Z,-4.87
2018-03-01T11:01:17.192Z,-4.93
2018-03-01T11:03:44.858Z,-4.71
2018-03-01T11:06:12.549Z,-4.60
2018-03-01T11:08:40.329Z,-4.58
2018-03-01T11:11:08.069Z,-4.51
2018-03-01T11:13:35.837Z,-4.30
2018-03-01T11:16:03.413Z,-4.12
2018-03-01T11:18:31.232Z,-4.13
2018-03-01T11:20:59.006Z,-4.21
2018-03-01T11:23:26.671Z,-4.45
2018-03-01T11:25:54.293Z,-4.26
2018-03-01T11:28:22.028Z,-4.22
2018-03-01T11:30:49.737Z,-4.27
2018-03-01T11:33:17.325Z,-4.18
2018-03-01T11:35:45.165Z,-4.04
2018-03-01T11:38:12.923Z,-3.98
2018-03-01T11:40:40.610Z,-3.79
2018-03-01T11:43:08.357Z,-3.63
2018-03-01T11:45:36.070Z,-3.72
2018-03-01T11:48:03.816Z,-3.84
2018-03-01T11:50:31.548Z,-3.76
2018-03-01T11:52:59.472Z,-3.91
2018-03-01T11:55:27.172Z,-3.92
2018-03-01T11:57:54.956Z,-3.94
2018-03-01T12:00:22.736Z,-4.12
2018-03-01T12:02:50.514Z,-4.00
2018-03-01T12:05:18.293Z,-4.07
2018-03-01T12:07:46.075Z,-3.97
2018-03-01T12:10:13.954Z,-3.91
2018-03-01T12:12:41.618Z,-3.53
2018-03-01T12:15:09.241Z,-3.39
2018-03-01T12:17:37.074Z,-3.51
2018-03-01T12:20:04.749Z,-3.53
2018-03-01T12:22:32.441Z,-3.27
2018-03-01T12:25:00.304Z,-3.18
2018-03-01T12:27:27.973Z,-3.49
2018-03-01T12:29:55.756Z,-3.45
2018-03-01T12:32:23.537Z,-3.38
2018-03-01T12:34:51.153Z,-3.09
2018-03-01T12:37:18.884Z,-2.98
2018-03-01T12:39:46.629Z,-2.88
2018-03-01T12:42:14.332Z,-2.79
2018-03-01T12:44:41.938Z,-2.88
2018-03-01T12:47:09.797Z,-3.03
2018-03-01T12:49:37.679Z,-3.04
2018-03-01T12:52:05.406Z,-2.83
2018-03-01T12:54:33.130Z,-3.16
2018-03-01T12:57:00.743Z,-2.86
2018-03-01T12:59:28.486Z,-2.80
2018-03-01T13:01:56.248Z,-2.50
2018-03-01T13:04:39.794Z,-2.73
2018-03-01T13:07:07.583Z,-3.22
2018-03-01T13:09:35.325Z,-3.19
2018-03-01T13:12:03.131Z,-3.41
2018-03-01T13:14:30.903Z,-3.28
2018-03-01T13:16:58.524Z,-3.35
2018-03-01T13:19:26.172Z,-3.25
2018-03-01T13:21:53.838Z,-3.11
2018-03-01T13:24:21.512Z,-3.30
2018-03-01T13:26:49.289Z,-3.25
2018-03-01T13:29:17.074Z,-3.42
2018-03-01T13:34:49.187Z,-3.44
2018-03-01T13:37:16.958Z,-3.43
2018-03-01T13:39:44.735Z,-3.31
2018-03-01T13:42:27.272Z,-3.33
2018-03-01T13:44:54.885Z,-3.38
2018-03-01T13:50:21.630Z,-3.33
2018-03-01T13:52:49.510Z,-3.22
2018-03-01T13:55:17.179Z,-3.23
2018-03-01T13:57:44.844Z,-3.05
2018-03-01T14:00:12.634Z,-2.88
2018-03-01T14:02:40.513Z,-2.85
2018-03-01T14:05:08.297Z,-2.84
2018-03-01T14:07:40.562Z,-2.80
2018-03-01T14:10:08.253Z,-2.69
2018-03-01T14:12:40.693Z,-2.85
2018-03-01T14:15:08.521Z,-2.46
2018-03-01T14:17:51.038Z,-2.89
2018-03-01T14:23:24.025Z,-3.07
2018-03-01T14:25:53.189Z,-2.99
2018-03-01T14:31:23.154Z,-2.86
2018-03-01T14:33:51.032Z,-2.91
2018-03-01T14:36:18.900Z,-2.79
2018-03-01T14:38:46.677Z,-2.99
2018-03-01T14:41:14.417Z,-3.04
2018-03-01T14:43:42.140Z,-3.22
2018-03-01T14:46:09.815Z,-3.16
2018-03-01T14:48:37.484Z,-3.11
2018-03-01T14:51:05.278Z,-2.94
2018-03-01T14:53:33.049Z,-3.04
2018-03-01T14:56:00.823Z,-3.07
2018-03-01T14:58:28.603Z,-3.12
2018-03-01T15:00:56.380Z,-3.11
2018-03-01T15:03:24.163Z,-3.06
2018-03-01T15:05:52.037Z,-3.09
2018-03-01T15:08:19.646Z,-3.04
2018-03-01T15:10:47.497Z,-3.04
2018-03-01T15:13:15.092Z,-3.23
2018-03-01T15:15:42.738Z,-3.36
2018-03-01T15:18:10.508Z,-3.35
2018-03-01T15:20:38.189Z,-3.15
2018-03-01T15:23:06.078Z,-3.01
2018-03-01T15:25:33.931Z,-3.13
2018-03-01T15:28:01.642Z,-3.25
2018-03-01T15:30:29.228Z,-3.25
2018-03-01T15:32:57.187Z,-3.27
2018-03-01T15:35:24.963Z,-3.18
2018-03-01T15:37:52.545Z,-3.17
2018-03-01T15:40:20.217Z,-3.14
2018-03-01T15:42:47.812Z,-3.46
2018-03-01T15:45:15.451Z,-3.50
2018-03-01T15:47:43.127Z,-3.54
2018-03-01T15:50:10.910Z,-3.57
2018-03-01T15:52:38.690Z,-3.67
2018-03-01T15:55:06.362Z,-3.60
2018-03-01T15:57:34.030Z,-3.50
2018-03-01T16:00:01.816Z,-3.76
2018-03-01T16:02:29.400Z,-3.75
2018-03-01T16:04:57.065Z,-3.75
2018-03-01T16:07:24.714Z,-3.74
2018-03-01T16:09:52.300Z,-3.78
2018-03-01T16:12:19.984Z,-3.83
2018-03-01T16:14:47.650Z,-3.85
2018-03-01T16:17:15.336Z,-3.89
2018-03-01T16:19:43.012Z,-3.93
2018-03-01T16:22:10.656Z,-3.94
2018-03-01T16:24:38.474Z,-4.04
2018-03-01T16:27:06.214Z,-4.03
2018-03-01T16:29:33.916Z,-4.08
2018-03-01T16:32:01.595Z,-4.12
2018-03-01T16:34:29.194Z,-4.20
2018-03-01T16:36:56.835Z,-4.19
2018-03-01T16:39:24.630Z,-4.20
2018-03-01T16:41:52.502Z,-4.28
2018-03-01T16:44:20.281Z,-4.29
2018-03-01T16:46:48.058Z,-4.33
2018-03-01T16:49:15.718Z,-4.38
2018-03-01T16:51:43.615Z,-4.38
2018-03-01T16:54:11.388Z,-4.44
2018-03-01T16:56:39.066Z,-4.44
2018-03-01T16:59:06.738Z,-4.44
2018-03-01T17:01:34.380Z,-4.47
2018-03-01T17:04:02.091Z,-4.52
2018-03-01T17:06:29.768Z,-4.55
2018-03-01T17:08:57.545Z,-4.53
2018-03-01T17:11:25.323Z,-4.55
2018-03-01T17:13:52.980Z,-4.55
2018-03-01T17:16:20.593Z,-4.64
2018-03-01T17:18:48.245Z,-4.60
2018-03-01T17:21:16.024Z,-4.62
2018-03-01T17:23:43.652Z,-4.63
2018-03-01T17:26:11.367Z,-4.66
2018-03-01T17:28:39.161Z,-4.70
2018-03-01T17:31:06.887Z,-4.72
2018-03-01T17:33:34.602Z,-4.78
2018-03-01T17:36:02.279Z,-4.76
2018-03-01T17:38:29.954Z,-4.79
2018-03-01T17:40:57.697Z,-4.81
2018-03-01T17:43:25.513Z,-4.83
2018-03-01T17:45:53.390Z,-4.92
2018-03-01T17:48:21.171Z,-4.98
2018-03-01T17:50:48.767Z,-4.95
2018-03-01T17:53:16.411Z,-4.99
2018-03-01T17:55:44.146Z,-5.02
2018-03-01T17:58:11.877Z,-5.05
2018-03-01T18:00:39.632Z,-5.07
2018-03-01T18:03:07.205Z,-5.12
2018-03-01T18:05:34.896Z,-5.15
2018-03-01T18:08:02.777Z,-5.17
2018-03-01T18:10:30.515Z,-5.16
2018-03-01T18:12:58.332Z,-5.19
2018-03-01T18:15:26.074Z,-5.23
2018-03-01T18:17:53.890Z,-5.23
2018-03-01T18:20:21.606Z,-5.27
2018-03-01T18:22:49.245Z,-5.27
2018-03-01T18:25:16.904Z,-5.26
2018-03-01T18:27:44.572Z,-5.32
2018-03-01T18:30:12.226Z,-5.30
2018-03-01T18:32:39.938Z,-5.38
2018-03-01T18:35:07.715Z,-5.28
2018-03-01T18:37:35.492Z,-5.37
2018-03-01T18:40:03.170Z,-5.38
2018-03-01T18:42:30.944Z,-5.36
2018-03-01T18:44:58.722Z,-5.40
2018-03-01T18:47:26.433Z,-5.42
2018-03-01T18:49:54.073Z,-5.42
2018-03-01T18:52:21.652Z,-5.44
2018-03-01T18:54:49.274Z,-5.49
2018-03-01T18:57:17.000Z,-5.45
2018-03-01T18:59:44.592Z,-5.48
2018-03-01T19:02:12.457Z,-5.51
2018-03-01T19:04:40.123Z,-5.55
2018-03-01T19:07:07.791Z,-5.55
2018-03-01T19:09:35.577Z,-5.58
2018-03-01T19:12:03.353Z,-5.58
2018-03-01T19:14:31.013Z,-5.63
2018-03-01T19:16:58.602Z,-5.61
2018-03-01T19:19:26.274Z,-5.66
2018-03-01T19:21:54.076Z,-5.62
2018-03-01T19:24:21.719Z,-5.66
2018-03-01T19:26:49.410Z,-5.65
2018-03-01T19:29:17.075Z,-5.75
2018-03-01T19:31:44.831Z,-5.69
2018-03-01T19:34:12.629Z,-5.72
2018-03-01T19:36:40.228Z,-5.71
2018-03-01T19:39:07.884Z,-5.74
2018-03-01T19:41:35.666Z,-5.74
2018-03-01T19:44:03.336Z,-5.78
2018-03-01T19:46:31.116Z,-5.77
2018-03-01T19:48:58.692Z,-5.80
2018-03-01T19:51:26.364Z,-5.80
2018-03-01T19:53:53.941Z,-5.80
2018-03-01T19:56:21.724Z,-5.83
2018-03-01T19:58:49.395Z,-5.85
2018-03-01T20:01:17.079Z,-5.85
2018-03-01T20:03:44.853Z,-5.89
2018-03-01T20:06:12.507Z,-5.90
2018-03-01T20:08:40.296Z,-5.90
2018-03-01T20:11:08.078Z,-5.97
2018-03-01T20:13:35.761Z,-5.80
2018-03-01T20:16:03.428Z,-5.90
2018-03-01T20:18:31.010Z,-5.94
2018-03-01T20:20:58.675Z,-5.95
2018-03-01T20:23:26.324Z,-5.97
2018-03-01T20:25:54.015Z,-5.98
2018-03-01T20:28:21.690Z,-6.00
2018-03-01T20:30:49.377Z,-6.05
2018-03-01T20:33:17.141Z,-6.10
2018-03-01T20:35:44.949Z,-6.08
2018-03-01T20:38:12.818Z,-6.06
2018-03-01T20:40:40.485Z,-6.06
2018-03-01T20:43:08.158Z,-6.05
2018-03-01T20:45:35.733Z,-6.11
2018-03-01T20:48:03.393Z,-6.14
2018-03-01T20:50:31.105Z,-6.15
2018-03-01T20:52:58.720Z,-6.23
2018-03-01T20:55:26.541Z,-6.19
2018-03-01T20:57:54.140Z,-6.21
2018-03-01T21:00:21.891Z,-6.17
2018-03-01T21:02:49.563Z,-6.20
2018-03-01T21:05:17.294Z,-6.23
2018-03-01T21:07:45.129Z,-6.25
2018-03-01T21:10:12.706Z,-6.26
2018-03-01T21:12:40.476Z,-6.23
2018-03-01T21:15:08.092Z,-6.28
2018-03-01T21:17:35.674Z,-6.34
2018-03-01T21:20:03.570Z,-6.31
2018-03-01T21:22:31.276Z,-6.36
2018-03-01T21:24:58.865Z,-6.34
2018-03-01T21:27:26.616Z,-6.36
2018-03-01T21:29:54.191Z,-6.29
2018-03-01T21:32:21.803Z,-6.35
2018-03-01T21:34:49.437Z,-6.35
2018-03-01T21:37:17.183Z,-6.39
2018-03-01T21:39:44.797Z,-6.39
2018-03-01T21:42:12.451Z,-6.40
2018-03-01T21:44:40.151Z,-6.39
2018-03-01T21:47:07.777Z,-6.47
2018-03-01T21:49:35.382Z,-6.43
2018-03-01T21:52:02.999Z,-6.51
2018-03-01T21:54:30.640Z,-6.53
2018-03-01T21:56:58.321Z,-6.56
2018-03-01T21:59:26.097Z,-6.54
2018-03-01T22:01:53.872Z,-6.60
2018-03-01T22:04:21.445Z,-6.55
2018-03-01T22:06:49.023Z,-6.61
2018-03-01T22:09:16.699Z,-6.59
2018-03-01T22:11:44.371Z,-6.60
2018-03-01T22:14:11.953Z,-6.62
2018-03-01T22:16:39.532Z,-6.64
2018-03-01T22:19:07.300Z,-6.61
2018-03-01T22:21:34.968Z,-6.64
2018-03-01T22:24:02.753Z,-6.69
2018-03-01T22:26:30.426Z,-6.67
2018-03-01T22:28:58.101Z,-6.70
2018-03-01T22:31:25.837Z,-6.70
2018-03-01T22:33:53.479Z,-6.75
2018-03-01T22:36:21.113Z,-6.77
2018-03-01T22:38:48.806Z,-6.76
2018-03-01T22:41:16.472Z,-6.80
2018-03-01T22:43:44.141Z,-6.85
2018-03-01T22:46:11.831Z,-6.82
2018-03-01T22:48:39.422Z,-6.86
2018-03-01T22:51:07.075Z,-6.88
2018-03-01T22:53:34.754Z,-6.86
2018-03-01T22:56:02.472Z,-6.87
2018-03-01T22:58:30.095Z,-6.93
2018-03-01T23:00:57.987Z,-6.92
2018-03-01T23:03:25.568Z,-6.94
2018-03-01T23:05:53.144Z,-6.99
2018-03-01T23:08:20.798Z,-6.98
2018-03-01T23:10:48.484Z,-7.01
2018-03-01T23:13:16.061Z,-7.04
2018-03-01T23:15:43.722Z,-7.04
2018-03-01T23:18:11.567Z,-7.09
2018-03-01T23:20:39.187Z,-7.06
2018-03-01T23:23:06.928Z,-7.13
2018-03-01T23:25:34.693Z,-7.06
2018-03-01T23:28:02.519Z,-7.11
2018-03-01T23:30:30.454Z,-7.10
2018-03-01T23:32:58.073Z,-7.14
2018-03-01T23:35:25.810Z,-7.17
2018-03-01T23:37:53.420Z,-7.20
2018-03-01T23:40:21.090Z,-7.19
2018-03-01T23:42:48.773Z,-7.22
2018-03-01T23:45:16.558Z,-7.26
2018-03-01T23:47:44.142Z,-7.25
2018-03-01T23:50:11.998Z,-7.24
2018-03-01T23:52:39.785Z,-7.26
2018-03-01T23:55:07.446Z,-7.26
2018-03-01T23:57:35.124Z,-7.31
